Time;durP1;ratioP1;P1;durP2;ratioP2;P2;SDS_P1;SDS_P2;PMS_P1;PMS_P2;Temp;Humidity;BMP_temperature;BMP_pressure;BME280_temperature;BME280_humidity;BME280_pressure;Samples;Min_cycle;Max_cycle;Signal;HPM_P1;HPM_P2
2022/08/31 00:06:20;;;;;;;;;;;21.30;93.90;;;;;;5048976;28;20225;-67
2022/08/31 00:08:48;;;;;;;;;;;21.30;93.90;;;;;;5036921;28;20244;-67
2022/08/31 00:11:18;;;;;;;;;;;21.30;94.00;;;;;;5039183;28;20205;-66
2022/08/31 00:13:48;;;;;;;;;;;21.30;94.10;;;;;;5040833;28;20209;-67
2022/08/31 00:16:15;;;;;;;;;;;21.30;94.30;;;;;;5035091;28;20196;-67
2022/08/31 00:18:45;;;;;;;;;;;21.20;94.20;;;;;;5048427;28;20230;-67
2022/08/31 00:21:13;;;;;;;;;;;21.30;94.40;;;;;;5045909;28;20198;-66
2022/08/31 00:23:41;;;;;;;;;;;21.20;94.40;;;;;;5039130;28;20194;-67
2022/08/31 00:26:09;;;;;;;;;;;21.20;94.40;;;;;;5045310;28;20277;-66
2022/08/31 00:28:36;;;;;;;;;;;21.20;94.50;;;;;;5042646;28;20199;-66
2022/08/31 00:31:06;;;;;;;;;;;21.20;94.60;;;;;;5042515;28;20586;-66
2022/08/31 00:33:35;;;;;;;;;;;21.20;94.60;;;;;;5045706;28;20198;-66
2022/08/31 00:36:03;;;;;;;;;;;21.10;94.70;;;;;;5041701;28;20198;-67
2022/08/31 00:38:31;;;;;;;;;;;21.20;94.80;;;;;;5041275;28;20206;-66
2022/08/31 00:40:59;;;;;;;;;;;21.10;95.00;;;;;;5048780;28;20569;-66
2022/08/31 00:43:34;;;;;;;;;;;21.10;95.00;;;;;;5037811;28;20213;-67
2022/08/31 00:46:02;;;;;;;;;;;21.10;95.10;;;;;;5042648;28;22332;-66
2022/08/31 00:48:31;;;;;;;;;;;21.00;95.20;;;;;;5034941;28;20190;-66
2022/08/31 00:50:59;;;;;;;;;;;21.00;95.20;;;;;;5041164;28;20697;-66
2022/08/31 00:53:26;;;;;;;;;;;21.00;95.30;;;;;;5041941;28;20210;-66
2022/08/31 00:55:54;;;;;;;;;;;21.00;95.40;;;;;;5039794;28;20213;-65
2022/08/31 00:58:22;;;;;;;;;;;21.00;95.60;;;;;;5043384;28;20209;-66
2022/08/31 01:00:50;;;;;;;;;;;20.90;95.60;;;;;;5038983;28;20724;-66
2022/08/31 01:03:20;;;;;;;;;;;20.90;95.80;;;;;;5041731;28;20222;-66
2022/08/31 01:05:49;;;;;;;;;;;20.90;95.90;;;;;;5036393;28;20194;-65
2022/08/31 01:08:17;;;;;;;;;;;20.90;96.00;;;;;;5043965;28;20194;-66
2022/08/31 01:10:51;;;;;;;;;;;20.90;96.20;;;;;;5042834;28;20260;-66
2022/08/31 01:13:19;;;;;;;;;;;20.80;96.20;;;;;;5043880;28;20829;-65
2022/08/31 01:15:49;;;;;;;;;;;20.80;96.20;;;;;;5036603;28;20570;-67
2022/08/31 01:18:21;;;;;;;;;;;20.80;96.40;;;;;;5044263;28;20287;-66
2022/08/31 01:20:56;;;;;;;;;;;20.80;96.70;;;;;;5036269;28;20201;-67
2022/08/31 01:23:26;;;;;;;;;;;20.80;96.50;;;;;;5046053;28;20757;-66
2022/08/31 01:25:55;;;;;;;;;;;20.70;96.60;;;;;;5040647;28;20221;-66
2022/08/31 01:28:23;;;;;;;;;;;20.70;96.70;;;;;;5035258;28;20221;-66
2022/08/31 01:30:57;;;;;;;;;;;20.70;96.80;;;;;;5041449;28;20200;-66
2022/08/31 01:33:25;;;;;;;;;;;20.70;96.90;;;;;;5041448;28;20249;-66
2022/08/31 01:35:53;;;;;;;;;;;20.70;97.00;;;;;;5045529;28;20224;-66
2022/08/31 01:38:21;;;;;;;;;;;20.70;97.00;;;;;;5041867;28;20209;-66
2022/08/31 01:40:52;;;;;;;;;;;20.70;97.10;;;;;;5037356;28;20195;-66
2022/08/31 01:43:19;;;;;;;;;;;20.80;97.10;;;;;;5040544;28;20186;-66
2022/08/31 01:45:47;;;;;;;;;;;20.70;97.20;;;;;;5043044;28;20204;-66
2022/08/31 01:48:15;;;;;;;;;;;20.70;97.30;;;;;;5040626;28;20213;-68
2022/08/31 01:50:43;;;;;;;;;;;20.70;97.40;;;;;;5039778;28;20203;-65
2022/08/31 01:53:11;;;;;;;;;;;20.70;97.40;;;;;;5043217;28;20198;-68
2022/08/31 01:55:39;;;;;;;;;;;20.70;97.50;;;;;;5040808;28;20273;-66
2022/08/31 01:58:08;;;;;;;;;;;20.70;97.60;;;;;;5031931;28;20966;-67
2022/08/31 02:00:36;;;;;;;;;;;20.60;97.70;;;;;;5038981;28;20720;-66
2022/08/31 02:03:06;;;;;;;;;;;20.60;97.80;;;;;;5039658;28;20227;-66
2022/08/31 02:05:35;;;;;;;;;;;20.60;97.90;;;;;;5038865;28;20277;-66
2022/08/31 02:08:04;;;;;;;;;;;20.60;98.00;;;;;;5040065;28;20198;-66
2022/08/31 02:10:31;;;;;;;;;;;20.60;98.10;;;;;;5043525;28;20627;-66
2022/08/31 02:12:59;;;;;;;;;;;20.60;98.10;;;;;;5035999;28;20368;-65
2022/08/31 02:15:28;;;;;;;;;;;20.60;98.20;;;;;;5050848;28;20195;-66
2022/08/31 02:17:56;;;;;;;;;;;20.60;98.20;;;;;;5044334;28;20614;-65
2022/08/31 02:20:24;;;;;;;;;;;20.60;98.40;;;;;;5048979;28;20622;-65
2022/08/31 02:22:52;;;;;;;;;;;20.60;98.40;;;;;;5040044;28;20194;-66
2022/08/31 02:25:19;;;;;;;;;;;20.60;98.50;;;;;;5047011;28;20219;-67
2022/08/31 02:27:47;;;;;;;;;;;20.60;98.60;;;;;;5044181;28;20206;-66
2022/08/31 02:30:17;;;;;;;;;;;20.60;98.70;;;;;;5045707;28;20621;-66
2022/08/31 02:32:47;;;;;;;;;;;20.60;98.80;;;;;;5044090;28;20633;-66
2022/08/31 02:35:14;;;;;;;;;;;20.60;98.90;;;;;;5039350;28;20237;-67
2022/08/31 02:37:42;;;;;;;;;;;20.60;99.00;;;;;;5040735;28;20202;-66
2022/08/31 02:40:11;;;;;;;;;;;20.60;99.10;;;;;;5037296;28;20202;-68
2022/08/31 02:42:40;;;;;;;;;;;20.50;99.30;;;;;;5042884;28;20198;-66
2022/08/31 02:45:20;;;;;;;;;;;20.50;99.50;;;;;;5042753;28;20203;-66
2022/08/31 02:47:49;;;;;;;;;;;20.50;99.50;;;;;;5044489;28;20657;-66
2022/08/31 02:50:17;;;;;;;;;;;20.50;99.60;;;;;;5038281;28;20615;-67
2022/08/31 02:52:45;;;;;;;;;;;20.50;99.70;;;;;;5043229;28;20217;-66
2022/08/31 02:55:13;;;;;;;;;;;20.60;99.90;;;;;;5037163;28;20240;-66
2022/08/31 02:57:41;;;;;;;;;;;20.60;99.80;;;;;;5037766;28;20201;-66
2022/08/31 03:00:09;;;;;;;;;;;20.60;99.90;;;;;;5047672;28;20195;-67
2022/08/31 03:02:39;;;;;;;;;;;20.50;99.90;;;;;;5039870;28;20244;-64
2022/08/31 03:05:10;;;;;;;;;;;20.50;99.90;;;;;;5068644;23;20273;-71
2022/08/31 03:07:38;;;;;;;;;;;20.60;99.90;;;;;;5024898;28;20755;-71
2022/08/31 03:10:07;;;;;;;;;;;20.60;99.90;;;;;;5017609;28;20199;-68
2022/08/31 03:12:34;;;;;;;;;;;20.50;99.90;;;;;;5029781;28;20677;-71
2022/08/31 03:15:02;;;;;;;;;;;20.50;99.90;;;;;;5028150;28;20194;-71
2022/08/31 03:17:30;;;;;;;;;;;20.40;99.90;;;;;;5011588;28;20191;-71
2022/08/31 03:20:03;;;;;;;;;;;20.40;99.90;;;;;;5012803;28;20195;-71
2022/08/31 03:22:33;;;;;;;;;;;20.50;99.90;;;;;;5010906;28;20227;-71
2022/08/31 03:25:01;;;;;;;;;;;20.50;99.90;;;;;;5011938;28;20192;-71
2022/08/31 03:27:29;;;;;;;;;;;20.40;99.90;;;;;;5009599;28;20194;-71
2022/08/31 03:29:57;;;;;;;;;;;20.40;99.90;;;;;;5011304;28;20210;-71
2022/08/31 03:32:26;;;;;;;;;;;20.50;99.90;;;;;;5010092;28;20071;-70
2022/08/31 03:34:54;;;;;;;;;;;20.50;99.90;;;;;;5010029;28;20242;-71
2022/08/31 03:37:23;;;;;;;;;;;20.50;99.90;;;;;;5009152;28;20249;-71
2022/08/31 03:39:52;;;;;;;;;;;20.40;99.90;;;;;;5006652;28;20255;-71
2022/08/31 03:42:20;;;;;;;;;;;20.40;99.90;;;;;;5008535;28;20222;-70
2022/08/31 03:44:48;;;;;;;;;;;20.40;99.90;;;;;;5005817;28;20190;-70
2022/08/31 03:47:15;;;;;;;;;;;20.40;99.90;;;;;;5007487;28;20218;-70
2022/08/31 03:49:43;;;;;;;;;;;20.40;99.90;;;;;;5009053;28;20184;-70
2022/08/31 03:52:11;;;;;;;;;;;20.40;99.90;;;;;;5010037;28;20089;-71
2022/08/31 03:54:39;;;;;;;;;;;20.40;99.90;;;;;;5012236;28;20633;-71
2022/08/31 03:57:08;;;;;;;;;;;20.30;99.90;;;;;;5010358;28;20178;-70
2022/08/31 03:59:36;;;;;;;;;;;20.30;99.90;;;;;;5009114;28;20492;-70
2022/08/31 04:02:04;;;;;;;;;;;20.40;99.90;;;;;;5006808;28;20214;-70
2022/08/31 04:04:32;;;;;;;;;;;20.40;99.90;;;;;;5007892;28;20664;-71
2022/08/31 04:07:00;;;;;;;;;;;20.30;99.90;;;;;;5009849;28;20138;-70
2022/08/31 04:09:28;;;;;;;;;;;20.30;99.90;;;;;;5005267;28;20132;-71
2022/08/31 04:11:55;;;;;;;;;;;20.30;99.90;;;;;;5005716;28;20084;-70
2022/08/31 04:14:25;;;;;;;;;;;20.20;99.90;;;;;;5009879;28;20986;-71
2022/08/31 04:16:52;;;;;;;;;;;20.20;99.90;;;;;;5011515;28;20163;-70
2022/08/31 04:19:21;;;;;;;;;;;20.10;99.90;;;;;;5009083;28;20857;-70
2022/08/31 04:21:49;;;;;;;;;;;20.10;99.90;;;;;;5007387;28;20459;-70
2022/08/31 04:24:17;;;;;;;;;;;20.10;99.90;;;;;;5004960;28;20235;-71
2022/08/31 04:26:45;;;;;;;;;;;19.90;99.90;;;;;;5010468;28;20215;-71
2022/08/31 04:29:12;;;;;;;;;;;19.90;99.90;;;;;;5008322;28;20211;-68
2022/08/31 04:31:42;;;;;;;;;;;19.80;99.90;;;;;;5008593;28;20115;-68
2022/08/31 04:34:09;;;;;;;;;;;19.80;99.90;;;;;;5002951;28;20073;-70
2022/08/31 04:36:38;;;;;;;;;;;19.90;99.90;;;;;;5000828;28;20862;-69
2022/08/31 04:39:08;;;;;;;;;;;19.80;99.90;;;;;;4996454;28;21121;-69
2022/08/31 04:41:37;;;;;;;;;;;19.80;99.90;;;;;;4996592;28;20230;-67
2022/08/31 04:44:05;;;;;;;;;;;19.90;99.90;;;;;;5000126;28;20206;-68
2022/08/31 04:46:35;;;;;;;;;;;19.80;99.90;;;;;;5000676;28;20203;-67
2022/08/31 04:49:06;;;;;;;;;;;19.70;99.90;;;;;;5000328;28;20222;-68
2022/08/31 04:51:35;;;;;;;;;;;19.50;99.90;;;;;;5016196;28;20163;-68
2022/08/31 04:54:04;;;;;;;;;;;19.40;99.90;;;;;;4998657;28;20240;-67
2022/08/31 04:56:33;;;;;;;;;;;19.40;99.90;;;;;;5000223;28;20099;-67
2022/08/31 04:59:02;;;;;;;;;;;19.30;99.90;;;;;;5000563;28;20233;-68
2022/08/31 05:01:31;;;;;;;;;;;19.20;99.90;;;;;;4999504;28;20211;-68
2022/08/31 05:04:12;;;;;;;;;;;19.00;99.90;;;;;;4998089;28;20206;-68
2022/08/31 05:06:41;;;;;;;;;;;19.20;99.90;;;;;;4998753;28;20211;-66
2022/08/31 05:09:11;;;;;;;;;;;19.30;99.90;;;;;;4998657;28;20120;-68
2022/08/31 05:11:39;;;;;;;;;;;19.70;99.90;;;;;;4997852;28;20310;-68
2022/08/31 05:14:07;;;;;;;;;;;19.60;99.90;;;;;;4998222;28;20257;-68
2022/08/31 05:16:37;;;;;;;;;;;19.60;99.90;;;;;;4997690;28;20206;-67
2022/08/31 05:19:05;;;;;;;;;;;19.70;99.90;;;;;;4999052;28;20253;-67
2022/08/31 05:21:36;;;;;;;;;;;19.90;99.90;;;;;;4997472;28;20211;-67
2022/08/31 05:24:05;;;;;;;;;;;19.80;99.90;;;;;;4997241;28;20203;-68
2022/08/31 05:26:34;;;;;;;;;;;19.90;99.90;;;;;;4996508;28;20199;-67
2022/08/31 05:29:05;;;;;;;;;;;20.10;99.90;;;;;;4996594;28;20214;-67
2022/08/31 05:31:34;;;;;;;;;;;20.10;99.90;;;;;;4994131;28;20924;-67
2022/08/31 05:34:03;;;;;;;;;;;20.00;99.90;;;;;;4996663;28;20291;-68
2022/08/31 05:36:31;;;;;;;;;;;19.80;99.90;;;;;;4995923;28;20734;-69
2022/08/31 05:39:00;;;;;;;;;;;19.80;99.90;;;;;;5001961;28;20583;-69
2022/08/31 05:41:29;;;;;;;;;;;19.80;99.90;;;;;;4996138;28;20235;-67
2022/08/31 05:43:57;;;;;;;;;;;20.00;99.90;;;;;;5027620;28;20207;-67
2022/08/31 05:46:26;;;;;;;;;;;19.90;99.90;;;;;;4996207;28;20203;-68
2022/08/31 05:48:54;;;;;;;;;;;19.90;99.90;;;;;;5001658;28;20231;-68
2022/08/31 05:51:21;;;;;;;;;;;19.90;99.90;;;;;;4997127;28;20278;-68
2022/08/31 05:53:50;;;;;;;;;;;19.80;99.90;;;;;;4994861;28;20682;-69
2022/08/31 05:56:20;;;;;;;;;;;19.60;99.90;;;;;;4997229;28;20287;-68
2022/08/31 05:58:48;;;;;;;;;;;19.40;99.90;;;;;;4999542;28;20187;-68
2022/08/31 06:01:17;;;;;;;;;;;19.50;99.90;;;;;;4995121;28;20218;-67
2022/08/31 06:03:46;;;;;;;;;;;19.60;99.90;;;;;;4994846;28;20210;-68
2022/08/31 06:06:14;;;;;;;;;;;19.70;99.90;;;;;;4995305;28;20224;-69
2022/08/31 06:08:42;;;;;;;;;;;19.60;99.90;;;;;;4995181;28;20203;-68
2022/08/31 06:11:18;;;;;;;;;;;19.40;99.90;;;;;;4995642;28;20682;-66
2022/08/31 06:13:49;;;;;;;;;;;19.30;99.90;;;;;;4994588;28;20262;-67
2022/08/31 06:16:17;;;;;;;;;;;19.20;99.90;;;;;;4993253;28;20200;-66
2022/08/31 06:18:48;;;;;;;;;;;19.20;99.90;;;;;;4995825;28;20746;-67
2022/08/31 06:21:17;;;;;;;;;;;19.10;99.90;;;;;;4995585;28;20196;-66
2022/08/31 06:23:45;;;;;;;;;;;19.20;99.90;;;;;;4996782;28;20246;-68
2022/08/31 06:26:14;;;;;;;;;;;19.20;99.90;;;;;;4994354;28;20802;-66
2022/08/31 06:28:43;;;;;;;;;;;19.20;99.90;;;;;;5004754;28;20203;-66
2022/08/31 06:31:17;;;;;;;;;;;19.30;99.90;;;;;;5009730;28;20199;-68
2022/08/31 06:33:46;;;;;;;;;;;19.30;99.90;;;;;;5011229;28;20650;-68
2022/08/31 06:36:16;;;;;;;;;;;19.30;99.90;;;;;;5011330;28;20199;-68
2022/08/31 06:38:44;;;;;;;;;;;19.20;99.90;;;;;;5010931;28;20222;-68
2022/08/31 06:41:13;;;;;;;;;;;19.30;99.90;;;;;;5011610;28;20602;-68
2022/08/31 06:43:41;;;;;;;;;;;19.30;99.90;;;;;;5008339;28;20683;-68
2022/08/31 06:46:09;;;;;;;;;;;19.30;99.90;;;;;;5011436;28;20192;-68
2022/08/31 06:48:38;;;;;;;;;;;19.20;99.90;;;;;;5011933;28;20231;-68
2022/08/31 06:51:07;;;;;;;;;;;19.20;99.90;;;;;;5013684;28;20195;-68
2022/08/31 06:53:36;;;;;;;;;;;19.20;99.90;;;;;;5014808;28;20214;-68
2022/08/31 06:56:05;;;;;;;;;;;19.10;99.90;;;;;;5012206;28;20275;-68
2022/08/31 06:58:48;;;;;;;;;;;19.00;99.90;;;;;;5013542;28;20605;-68
2022/08/31 07:01:21;;;;;;;;;;;19.10;99.90;;;;;;5014630;28;20214;-68
2022/08/31 07:04:05;;;;;;;;;;;19.10;99.90;;;;;;5013930;28;20195;-68
2022/08/31 07:06:34;;;;;;;;;;;19.20;99.90;;;;;;5014344;28;20210;-68
2022/08/31 07:09:04;;;;;;;;;;;19.20;99.90;;;;;;5013451;28;20199;-67
2022/08/31 07:11:33;;;;;;;;;;;19.30;99.90;;;;;;5013456;28;20206;-68
2022/08/31 07:14:02;;;;;;;;;;;19.30;99.90;;;;;;5014549;28;20191;-67
2022/08/31 07:16:30;;;;;;;;;;;19.40;99.90;;;;;;5012210;28;20209;-68
2022/08/31 07:18:58;;;;;;;;;;;19.40;99.90;;;;;;5013571;28;20568;-68
2022/08/31 07:21:29;;;;;;;;;;;19.40;99.90;;;;;;5014290;28;20210;-68
2022/08/31 07:23:58;;;;;;;;;;;19.40;99.90;;;;;;5013012;28;20215;-68
2022/08/31 07:26:27;;;;;;;;;;;19.50;99.90;;;;;;5012679;28;20199;-68
2022/08/31 07:28:56;;;;;;;;;;;19.50;99.90;;;;;;5014104;28;20207;-68
2022/08/31 07:31:25;;;;;;;;;;;19.50;99.90;;;;;;4996201;28;20207;-68
2022/08/31 07:33:55;;;;;;;;;;;19.50;99.90;;;;;;5002397;28;20135;-68
2022/08/31 07:36:24;;;;;;;;;;;19.50;99.90;;;;;;5014072;28;20663;-68
2022/08/31 07:44:33;;;;;;;;;;;19.40;99.90;;;;;;5033911;28;20227;-68
2022/08/31 07:47:01;;;;;;;;;;;19.40;99.90;;;;;;5013982;28;20205;-68
2022/08/31 07:49:29;;;;;;;;;;;19.40;99.90;;;;;;5012960;28;20238;-68
2022/08/31 07:51:58;;;;;;;;;;;19.30;99.90;;;;;;5013991;28;20680;-68
2022/08/31 07:54:27;;;;;;;;;;;19.40;99.90;;;;;;5012915;28;20575;-69
2022/08/31 07:56:59;;;;;;;;;;;19.40;99.90;;;;;;5012592;28;20203;-69
2022/08/31 07:59:27;;;;;;;;;;;19.40;99.90;;;;;;5011863;28;20276;-68
2022/08/31 08:01:55;;;;;;;;;;;19.40;99.90;;;;;;5013286;28;20211;-68
2022/08/31 08:04:24;;;;;;;;;;;19.40;99.90;;;;;;5012144;28;20211;-68
2022/08/31 08:06:54;;;;;;;;;;;19.30;99.90;;;;;;5012527;28;20199;-68
2022/08/31 08:09:22;;;;;;;;;;;19.30;99.90;;;;;;5012312;28;20207;-68
2022/08/31 08:11:54;;;;;;;;;;;19.40;99.90;;;;;;5013208;28;20222;-68
2022/08/31 08:14:28;;;;;;;;;;;19.30;99.90;;;;;;5012670;28;20240;-68
2022/08/31 08:16:57;;;;;;;;;;;19.40;99.90;;;;;;5013573;28;20729;-69
2022/08/31 08:19:24;;;;;;;;;;;19.30;99.90;;;;;;5012422;28;20216;-68
2022/08/31 08:21:52;;;;;;;;;;;19.30;99.90;;;;;;5011906;28;20214;-68
2022/08/31 08:24:20;;;;;;;;;;;19.30;99.90;;;;;;5010707;28;20195;-68
2022/08/31 08:26:49;;;;;;;;;;;19.30;99.90;;;;;;5013185;28;20203;-68
2022/08/31 08:29:23;;;;;;;;;;;19.30;99.90;;;;;;5001887;28;20227;-68
2022/08/31 08:31:53;;;;;;;;;;;19.30;99.90;;;;;;4993421;28;20203;-68
2022/08/31 08:34:23;;;;;;;;;;;19.30;99.90;;;;;;5003436;28;20218;-68
2022/08/31 08:36:59;;;;;;;;;;;19.40;99.90;;;;;;5012919;28;20231;-69
2022/08/31 08:39:27;;;;;;;;;;;19.40;99.90;;;;;;5011472;28;20228;-69
2022/08/31 08:41:56;;;;;;;;;;;19.40;99.90;;;;;;5012826;28;20198;-67
2022/08/31 08:44:27;;;;;;;;;;;19.30;99.90;;;;;;5011143;28;20203;-69
2022/08/31 08:46:55;;;;;;;;;;;19.20;99.90;;;;;;5012931;28;20256;-69
2022/08/31 08:49:26;;;;;;;;;;;18.90;99.90;;;;;;5011758;28;20199;-70
2022/08/31 08:51:55;;;;;;;;;;;18.80;99.90;;;;;;5011693;28;20246;-69
2022/08/31 08:54:30;;;;;;;;;;;18.70;99.90;;;;;;5011625;28;20245;-69
2022/08/31 08:56:59;;;;;;;;;;;18.70;99.90;;;;;;5011462;28;20210;-68
2022/08/31 08:59:29;;;;;;;;;;;18.70;99.90;;;;;;5011690;28;20212;-69
2022/08/31 09:02:05;;;;;;;;;;;18.70;99.90;;;;;;5012663;28;20262;-69
2022/08/31 09:04:44;;;;;;;;;;;18.60;99.90;;;;;;5012020;28;20557;-69
2022/08/31 09:07:21;;;;;;;;;;;18.50;99.90;;;;;;5058037;22;25085;-65
2022/08/31 09:09:56;;;;;;;;;;;18.50;99.90;;;;;;5051083;28;20523;-64
2022/08/31 09:12:29;;;;;;;;;;;18.50;99.90;;;;;;5050880;28;20624;-64
2022/08/31 09:15:06;;;;;;;;;;;18.50;99.90;;;;;;5052132;28;20227;-65
2022/08/31 09:17:37;;;;;;;;;;;18.60;99.90;;;;;;5032483;28;20097;-65
2022/08/31 09:20:06;;;;;;;;;;;18.60;99.90;;;;;;5031774;28;20259;-65
2022/08/31 09:22:45;;;;;;;;;;;18.70;99.90;;;;;;5031447;28;20559;-65
2022/08/31 09:25:13;;;;;;;;;;;18.70;99.90;;;;;;5032164;28;20211;-65
2022/08/31 09:27:45;;;;;;;;;;;18.90;99.90;;;;;;5030173;28;20131;-65
2022/08/31 09:30:17;;;;;;;;;;;19.00;99.90;;;;;;5031438;28;20254;-65
2022/08/31 09:32:53;;;;;;;;;;;19.00;99.90;;;;;;5030921;28;20205;-65
2022/08/31 09:35:23;;;;;;;;;;;19.10;99.90;;;;;;5030049;28;20204;-65
2022/08/31 09:37:57;;;;;;;;;;;19.20;99.90;;;;;;5031616;28;20223;-65
2022/08/31 09:40:34;;;;;;;;;;;19.30;99.90;;;;;;5031639;28;20207;-65
2022/08/31 09:43:05;;;;;;;;;;;19.40;99.90;;;;;;5030717;28;20709;-65
2022/08/31 09:45:35;;;;;;;;;;;19.50;99.90;;;;;;5030791;28;20194;-65
2022/08/31 09:48:09;;;;;;;;;;;19.70;99.90;;;;;;5032126;28;20203;-65
2022/08/31 09:50:43;;;;;;;;;;;19.80;99.90;;;;;;5030634;28;20200;-65
2022/08/31 09:56:04;;;;;;;;;;;19.90;99.90;;;;;;5031749;28;20216;-65
2022/08/31 09:58:32;;;;;;;;;;;19.90;99.90;;;;;;5030111;28;20215;-66
2022/08/31 10:01:12;;;;;;;;;;;19.90;99.90;;;;;;5030475;28;20199;-64
2022/08/31 10:03:43;;;;;;;;;;;19.90;99.90;;;;;;5023438;28;20738;-65
2022/08/31 10:06:36;;;;;;;;;;;20.00;99.90;;;;;;5030249;28;20214;-65
2022/08/31 10:09:07;;;;;;;;;;;20.20;99.90;;;;;;5027090;28;20198;-65
2022/08/31 10:11:35;;;;;;;;;;;20.30;99.90;;;;;;5030789;28;20647;-65
2022/08/31 10:14:06;;;;;;;;;;;20.30;99.90;;;;;;5031514;28;20203;-65
2022/08/31 10:16:37;;;;;;;;;;;20.40;99.90;;;;;;5030493;28;20294;-65
2022/08/31 10:19:06;;;;;;;;;;;20.60;99.90;;;;;;5031332;28;20201;-65
2022/08/31 10:21:39;;;;;;;;;;;20.80;99.90;;;;;;5030532;28;20202;-65
2022/08/31 10:24:19;;;;;;;;;;;20.90;99.90;;;;;;5033634;28;20215;-65
2022/08/31 10:26:49;;;;;;;;;;;21.20;99.90;;;;;;5034518;28;20199;-65
2022/08/31 10:29:20;;;;;;;;;;;21.30;99.90;;;;;;5034028;28;20199;-65
2022/08/31 10:31:53;;;;;;;;;;;21.50;99.90;;;;;;5034840;28;20225;-65
2022/08/31 10:37:11;;;;;;;;;;;21.60;99.90;;;;;;5035032;28;20202;-65
2022/08/31 10:39:41;;;;;;;;;;;21.70;99.90;;;;;;5033870;28;20660;-65
2022/08/31 10:42:10;;;;;;;;;;;21.80;99.90;;;;;;5035073;28;20209;-65
2022/08/31 10:44:43;;;;;;;;;;;21.70;99.90;;;;;;5034010;28;20264;-65
2022/08/31 10:47:18;;;;;;;;;;;21.60;99.90;;;;;;5033731;28;20203;-65
2022/08/31 10:50:01;;;;;;;;;;;21.60;99.90;;;;;;5034479;28;20199;-65
2022/08/31 10:52:32;;;;;;;;;;;21.60;99.90;;;;;;5034049;28;20199;-65
2022/08/31 10:55:05;;;;;;;;;;;21.50;99.90;;;;;;5034828;28;20205;-65
2022/08/31 10:57:37;;;;;;;;;;;21.40;99.90;;;;;;5033826;28;20191;-65
2022/08/31 11:00:07;;;;;;;;;;;21.50;99.90;;;;;;5033183;28;20202;-65
2022/08/31 11:02:44;;;;;;;;;;;21.40;99.90;;;;;;5034522;28;20190;-65
2022/08/31 11:05:28;;;;;;;;;;;21.40;99.90;;;;;;5033891;28;20203;-65
2022/08/31 11:08:01;;;;;;;;;;;21.40;99.90;;;;;;5032689;28;20260;-64
2022/08/31 11:10:37;;;;;;;;;;;21.40;99.90;;;;;;5034054;28;20685;-64
2022/08/31 11:13:08;;;;;;;;;;;21.20;99.90;;;;;;5033688;28;20261;-65
2022/08/31 11:15:47;;;;;;;;;;;21.30;99.90;;;;;;5033417;28;20265;-64
2022/08/31 11:18:39;;;;;;;;;;;21.40;99.90;;;;;;5033098;28;20250;-65
2022/08/31 11:21:18;;;;;;;;;;;21.40;99.90;;;;;;5037917;28;20211;-65
2022/08/31 11:23:53;;;;;;;;;;;21.40;99.90;;;;;;5033597;28;20613;-65
2022/08/31 11:26:33;;;;;;;;;;;21.30;99.90;;;;;;5034179;28;20205;-65
2022/08/31 11:29:02;;;;;;;;;;;21.40;99.90;;;;;;5028433;28;20252;-65
2022/08/31 11:31:32;;;;;;;;;;;21.60;99.90;;;;;;5033620;28;20203;-64
2022/08/31 11:34:07;;;;;;;;;;;21.60;99.90;;;;;;5023374;28;20246;-64
2022/08/31 11:36:50;;;;;;;;;;;21.60;99.90;;;;;;5014303;28;20195;-64
2022/08/31 11:39:43;;;;;;;;;;;21.50;99.90;;;;;;5025887;28;20207;-63
2022/08/31 11:42:12;;;;;;;;;;;21.60;99.90;;;;;;5033598;28;20219;-65
2022/08/31 11:44:44;;;;;;;;;;;21.60;99.90;;;;;;5025720;28;20190;-65
2022/08/31 11:47:33;;;;;;;;;;;21.50;99.90;;;;;;5033155;28;20229;-65
2022/08/31 11:50:04;;;;;;;;;;;21.50;99.90;;;;;;5032116;28;20191;-65
2022/08/31 11:52:43;;;;;;;;;;;21.60;99.90;;;;;;5033625;28;20203;-65
2022/08/31 11:55:17;;;;;;;;;;;21.70;99.90;;;;;;5032667;28;20228;-65
2022/08/31 11:58:05;;;;;;;;;;;21.90;99.90;;;;;;5033595;28;20199;-65
2022/08/31 12:00:41;;;;;;;;;;;22.00;99.90;;;;;;5032533;28;20194;-65
2022/08/31 12:03:09;;;;;;;;;;;22.10;99.90;;;;;;5033005;28;20210;-65
2022/08/31 12:05:49;;;;;;;;;;;22.10;99.90;;;;;;5032008;28;20244;-65
2022/08/31 12:08:18;;;;;;;;;;;22.30;99.90;;;;;;4992375;28;20850;-65
2022/08/31 12:10:54;;;;;;;;;;;22.20;99.90;;;;;;4983338;28;20203;-65
2022/08/31 12:13:29;;;;;;;;;;;22.20;99.90;;;;;;4986136;28;20207;-65
2022/08/31 12:16:06;;;;;;;;;;;22.30;99.90;;;;;;4993326;28;20199;-65
2022/08/31 12:18:53;;;;;;;;;;;22.40;99.90;;;;;;4984677;28;20202;-65
2022/08/31 12:24:17;;;;;;;;;;;22.60;99.90;;;;;;4985015;28;20661;-65
2022/08/31 12:26:54;;;;;;;;;;;22.70;99.90;;;;;;4986425;28;21302;-64
2022/08/31 12:29:24;;;;;;;;;;;22.80;99.90;;;;;;4991360;28;20226;-65
2022/08/31 12:32:12;;;;;;;;;;;23.00;99.90;;;;;;4986545;28;20191;-65
2022/08/31 12:34:42;;;;;;;;;;;23.00;99.90;;;;;;4985603;28;20781;-65
2022/08/31 12:37:21;;;;;;;;;;;23.30;99.90;;;;;;4986247;28;20196;-65
2022/08/31 12:40:04;;;;;;;;;;;23.30;99.90;;;;;;4986763;28;20267;-65
2022/08/31 12:42:33;;;;;;;;;;;23.40;99.90;;;;;;4989961;28;20204;-64
2022/08/31 12:45:02;;;;;;;;;;;23.70;99.90;;;;;;4988519;28;20196;-64
2022/08/31 12:47:33;;;;;;;;;;;23.80;99.90;;;;;;4983468;28;20200;-64
2022/08/31 12:50:10;;;;;;;;;;;23.70;99.90;;;;;;4992971;28;20196;-64
2022/08/31 12:52:56;;;;;;;;;;;23.80;99.90;;;;;;4985158;28;20288;-64
2022/08/31 12:55:37;;;;;;;;;;;23.90;99.90;;;;;;4990414;28;20692;-66
2022/08/31 12:58:12;;;;;;;;;;;23.80;99.90;;;;;;4988201;28;20199;-64
2022/08/31 13:00:42;;;;;;;;;;;23.50;99.90;;;;;;4991777;28;20200;-64
2022/08/31 13:03:16;;;;;;;;;;;23.70;99.90;;;;;;4993178;28;20684;-65
2022/08/31 13:05:59;;;;;;;;;;;23.70;99.90;;;;;;4987461;28;20227;-65
2022/08/31 13:08:27;;;;;;;;;;;23.90;99.90;;;;;;4991735;28;20208;-64
2022/08/31 13:10:56;;;;;;;;;;;24.00;99.90;;;;;;4986131;28;20563;-64
2022/08/31 13:13:27;;;;;;;;;;;23.90;99.90;;;;;;4990307;28;20599;-64
2022/08/31 13:15:58;;;;;;;;;;;23.80;99.90;;;;;;4987219;28;20723;-64
2022/08/31 13:18:27;;;;;;;;;;;23.90;99.90;;;;;;4991588;28;20680;-64
2022/08/31 13:20:57;;;;;;;;;;;23.80;99.90;;;;;;4973003;28;20247;-66
2022/08/31 13:23:27;;;;;;;;;;;23.80;99.90;;;;;;4973654;28;20255;-64
2022/08/31 13:26:12;;;;;;;;;;;24.00;99.90;;;;;;4984622;28;20199;-64
2022/08/31 13:28:40;;;;;;;;;;;24.30;99.90;;;;;;4982569;28;20196;-64
2022/08/31 13:31:08;;;;;;;;;;;24.30;99.90;;;;;;4992182;28;20195;-64
2022/08/31 13:33:38;;;;;;;;;;;24.70;99.90;;;;;;4991581;28;20211;-65
2022/08/31 13:36:08;;;;;;;;;;;24.80;99.90;;;;;;4992614;28;20681;-65
2022/08/31 13:38:43;;;;;;;;;;;24.50;99.90;;;;;;4983950;28;20204;-64
2022/08/31 13:41:22;;;;;;;;;;;24.60;99.90;;;;;;4992373;28;20608;-64
2022/08/31 13:43:57;;;;;;;;;;;24.60;99.90;;;;;;4991450;28;20196;-64
2022/08/31 13:46:27;;;;;;;;;;;24.80;99.90;;;;;;4992539;28;20206;-65
2022/08/31 13:49:20;;;;;;;;;;;24.70;99.90;;;;;;4988920;28;20250;-64
2022/08/31 13:51:48;;;;;;;;;;;24.70;99.90;;;;;;4974623;28;20201;-65
2022/08/31 13:54:25;;;;;;;;;;;24.80;99.90;;;;;;4983345;28;20254;-65
2022/08/31 13:56:54;;;;;;;;;;;24.90;99.90;;;;;;4984043;28;20196;-65
2022/08/31 13:59:28;;;;;;;;;;;24.80;99.90;;;;;;4985635;28;20196;-65
2022/08/31 14:01:58;;;;;;;;;;;24.70;99.90;;;;;;4996150;28;20191;-65
2022/08/31 14:04:42;;;;;;;;;;;24.40;99.90;;;;;;4987538;28;20279;-65
2022/08/31 14:07:13;;;;;;;;;;;24.40;99.90;;;;;;5017181;28;20210;-64
2022/08/31 14:09:44;;;;;;;;;;;24.40;99.90;;;;;;5027315;28;20686;-64
2022/08/31 14:12:30;;;;;;;;;;;24.40;99.90;;;;;;5035329;28;20742;-65
2022/08/31 14:14:59;;;;;;;;;;;24.40;99.90;;;;;;5035202;28;20199;-65
2022/08/31 14:17:28;;;;;;;;;;;24.70;99.90;;;;;;5035285;28;20203;-65
2022/08/31 14:19:55;;;;;;;;;;;25.10;99.90;;;;;;5034515;28;20694;-65
2022/08/31 14:22:27;;;;;;;;;;;25.20;99.90;;;;;;5035302;28;20207;-65
2022/08/31 14:24:55;;;;;;;;;;;25.30;99.90;;;;;;5034502;28;20203;-65
2022/08/31 14:27:24;;;;;;;;;;;25.20;99.90;;;;;;5035743;28;20202;-66
2022/08/31 14:29:52;;;;;;;;;;;25.00;99.90;;;;;;5034567;28;20191;-64
2022/08/31 14:32:21;;;;;;;;;;;24.90;99.90;;;;;;5035276;28;20856;-65
2022/08/31 14:34:49;;;;;;;;;;;24.90;99.90;;;;;;5033992;28;20190;-65
2022/08/31 14:37:21;;;;;;;;;;;24.70;99.90;;;;;;5034147;28;20253;-65
2022/08/31 14:39:50;;;;;;;;;;;24.50;99.80;;;;;;5033375;28;20195;-64
2022/08/31 14:42:18;;;;;;;;;;;24.40;99.90;;;;;;5034885;28;20602;-65
2022/08/31 14:44:55;;;;;;;;;;;24.40;99.90;;;;;;5033980;28;20195;-65
2022/08/31 14:47:24;;;;;;;;;;;24.20;99.90;;;;;;5034969;28;20199;-65
2022/08/31 14:49:52;;;;;;;;;;;24.10;99.60;;;;;;5033978;28;20226;-65
2022/08/31 14:52:20;;;;;;;;;;;23.90;98.90;;;;;;5033950;28;20210;-65
2022/08/31 14:54:48;;;;;;;;;;;23.80;99.50;;;;;;5033673;28;20665;-64
2022/08/31 14:57:21;;;;;;;;;;;23.80;99.90;;;;;;5034718;28;20199;-65